TimeCST,TemperatureF,Dew PointF,Humidity,Sea Level PressureIn,VisibilityMPH,Wind Direction,Wind SpeedMPH,Gust SpeedMPH,PrecipitationIn,Events,Conditions,WindDirDegrees,DateUTC
12:52 AM,51.1,39.9,66,30.03,10.0,South,12.7,-,N/A,,Clear,170,2012-11-19 06:52:00
1:52 AM,48.9,41.0,74,30.03,10.0,South,11.5,-,N/A,,Clear,170,2012-11-19 07:52:00
2:52 AM,48.0,41.0,77,30.04,10.0,South,10.4,-,N/A,,Clear,170,2012-11-19 08:52:00
4:52 AM,46.0,39.9,79,30.05,10.0,South,6.9,-,N/A,,Clear,180,2012-11-19 10:52:00
5:52 AM,43.0,39.0,86,30.06,9.0,SSE,5.8,-,N/A,,Clear,150,2012-11-19 11:52:00
6:52 AM,39.0,37.0,93,30.08,6.0,SSE,3.5,-,N/A,,Clear,160,2012-11-19 12:52:00
7:42 AM,37.4,37.4,100,30.11,1.8,Calm,Calm,-,N/A,,Clear,0,2012-11-19 13:42:00
7:52 AM,39.0,37.9,96,30.10,7.0,Calm,Calm,-,N/A,,Clear,0,2012-11-19 13:52:00
8:52 AM,46.9,42.1,83,30.12,8.0,SSW,5.8,-,N/A,,Clear,200,2012-11-19 14:52:00
9:52 AM,53.1,42.1,66,30.11,10.0,SW,6.9,-,N/A,,Clear,230,2012-11-19 15:52:00
10:52 AM,55.9,44.1,64,30.12,10.0,SW,4.6,-,N/A,,Clear,230,2012-11-19 16:52:00
11:52 AM,60.1,45.0,57,30.11,10.0,West,3.5,-,N/A,,Clear,270,2012-11-19 17:52:00
12:52 PM,64.9,43.0,45,30.08,10.0,Calm,Calm,-,N/A,,Clear,0,2012-11-19 18:52:00
1:52 PM,68.0,43.0,40,30.05,10.0,SW,3.5,-,N/A,,Clear,230,2012-11-19 19:52:00
2:52 PM,71.1,42.1,35,30.06,10.0,WNW,5.8,-,N/A,,Clear,300,2012-11-19 20:52:00
3:52 PM,72.0,39.0,30,30.06,10.0,NW,5.8,-,N/A,,Clear,320,2012-11-19 21:52:00
4:52 PM,66.0,39.0,37,30.08,10.0,West,3.5,-,N/A,,Clear,270,2012-11-19 22:52:00
5:52 PM,53.1,37.9,57,30.11,10.0,NNW,3.5,-,N/A,,Clear,330,2012-11-19 23:52:00
6:52 PM,46.9,37.0,68,30.14,10.0,Calm,Calm,-,N/A,,Clear,0,2012-11-20 00:52:00
7:52 PM,45.0,36.0,71,30.15,10.0,Calm,Calm,-,N/A,,Clear,0,2012-11-20 01:52:00
8:52 PM,44.1,37.0,76,30.15,10.0,Calm,Calm,-,N/A,,Clear,0,2012-11-20 02:52:00
9:52 PM,46.0,37.0,71,30.15,10.0,NW,4.6,-,N/A,,Clear,310,2012-11-20 03:52:00
10:52 PM,46.0,36.0,68,30.15,10.0,WNW,4.6,-,N/A,,Clear,300,2012-11-20 04:52:00
11:52 PM,43.0,35.1,74,30.16,10.0,WNW,4.6,-,N/A,,Clear,300,2012-11-20 05:52:00